createdAt,value
2022-10-22T00:00:55.701Z,16.29
2022-10-22T00:03:22.139Z,16.29
2022-10-22T00:05:48.474Z,16.24
2022-10-22T00:08:14.951Z,16.18
2022-10-22T00:10:41.313Z,16.17
2022-10-22T00:13:07.762Z,16.18
2022-10-22T00:15:34.147Z,16.14
2022-10-22T00:18:00.486Z,16.16
2022-10-22T00:20:26.876Z,16.18
2022-10-22T00:22:53.307Z,16.12
2022-10-22T00:25:19.780Z,16.09
2022-10-22T00:27:46.169Z,16.04
2022-10-22T00:30:12.840Z,15.64
2022-10-22T00:32:39.696Z,15.79
2022-10-22T00:35:07.193Z,15.84
2022-10-22T00:37:33.654Z,15.75
2022-10-22T00:40:00.214Z,15.65
2022-10-22T00:42:29.291Z,15.74
2022-10-22T00:45:09.812Z,15.75
2022-10-22T00:48:07.315Z,15.72
2022-10-22T00:50:38.012Z,15.68
2022-10-22T00:53:08.051Z,15.65
2022-10-22T00:55:35.159Z,15.77
2022-10-22T00:58:02.216Z,15.67
2022-10-22T01:00:28.842Z,15.82
2022-10-22T01:02:55.897Z,15.79
2022-10-22T01:05:22.811Z,15.81
2022-10-22T01:07:52.405Z,15.83
2022-10-22T01:11:03.105Z,15.79
2022-10-22T01:14:04.509Z,15.98
2022-10-22T01:16:59.028Z,15.88
2022-10-22T01:19:47.878Z,15.88
2022-10-22T01:22:34.300Z,15.83
2022-10-22T01:25:13.214Z,15.71
2022-10-22T01:27:47.625Z,15.66
2022-10-22T01:30:15.775Z,15.57
2022-10-22T01:33:01.026Z,15.63
2022-10-22T01:38:08.803Z,15.84
2022-10-22T01:40:36.403Z,15.70
2022-10-22T01:43:05.373Z,15.77
2022-10-22T01:45:39.636Z,15.72
2022-10-22T01:48:14.118Z,15.90
2022-10-22T01:50:55.991Z,15.97
2022-10-22T01:53:40.702Z,16.00
2022-10-22T01:56:10.085Z,16.21
2022-10-22T01:58:39.702Z,16.05
2022-10-22T02:01:32.581Z,15.99
2022-10-22T02:04:08.479Z,16.02
2022-10-22T02:06:39.029Z,16.10
2022-10-22T02:09:07.786Z,15.99
2022-10-22T02:11:34.882Z,16.10
2022-10-22T02:14:04.914Z,16.18
2022-10-22T02:16:43.316Z,16.23
2022-10-22T02:19:19.781Z,16.24
2022-10-22T02:21:46.234Z,16.23
2022-10-22T02:24:13.114Z,16.26
2022-10-22T02:26:48.054Z,16.30
2022-10-22T02:29:22.469Z,16.34
2022-10-22T02:31:52.183Z,16.38
2022-10-22T02:34:24.146Z,16.49
2022-10-22T02:36:52.023Z,16.50
2022-10-22T02:39:20.858Z,16.72
2022-10-22T02:41:48.381Z,16.63
2022-10-22T02:44:14.824Z,16.59
2022-10-22T02:46:43.265Z,16.59
2022-10-22T02:49:09.588Z,16.57
2022-10-22T02:51:36.006Z,16.66
2022-10-22T02:54:02.356Z,16.60
2022-10-22T02:56:29.006Z,16.58
2022-10-22T02:58:55.473Z,16.83
2022-10-22T03:01:22.026Z,16.70
2022-10-22T03:03:48.750Z,16.72
2022-10-22T03:06:15.347Z,16.71
2022-10-22T03:08:41.969Z,16.87
2022-10-22T03:11:08.564Z,16.86
2022-10-22T03:13:35.262Z,16.84
2022-10-22T03:16:01.838Z,16.85
2022-10-22T03:18:28.299Z,16.72
2022-10-22T03:21:07.908Z,16.73
2022-10-22T03:23:34.246Z,16.68
2022-10-22T03:26:00.650Z,16.68
2022-10-22T03:28:27.184Z,16.64
2022-10-22T03:30:53.512Z,16.53
2022-10-22T03:33:19.873Z,16.51
2022-10-22T03:35:47.580Z,16.45
2022-10-22T03:38:14.748Z,16.35
2022-10-22T03:40:44.273Z,16.52
2022-10-22T03:43:11.103Z,16.38
2022-10-22T03:48:05.350Z,16.39
2022-10-22T03:50:31.706Z,16.31
2022-10-22T03:52:58.204Z,16.23
2022-10-22T03:55:24.907Z,16.19
2022-10-22T03:57:51.273Z,16.11
2022-10-22T04:00:17.904Z,16.16
2022-10-22T04:02:44.247Z,16.00
2022-10-22T04:05:10.789Z,15.87
2022-10-22T04:07:37.502Z,15.74
2022-10-22T04:10:04.464Z,15.53
2022-10-22T04:12:30.819Z,15.39
2022-10-22T04:14:57.213Z,15.21
2022-10-22T04:17:23.622Z,15.21
2022-10-22T04:19:49.986Z,15.31
2022-10-22T04:22:16.372Z,15.14
2022-10-22T04:24:42.738Z,15.11
2022-10-22T04:27:09.187Z,15.18
2022-10-22T04:29:35.654Z,15.02
2022-10-22T04:32:02.026Z,15.00
2022-10-22T04:34:28.871Z,15.17
2022-10-22T04:36:55.717Z,14.93
2022-10-22T04:39:22.173Z,15.02
2022-10-22T04:41:48.545Z,14.99
2022-10-22T04:44:17.209Z,15.28
2022-10-22T04:46:44.752Z,15.17
2022-10-22T04:49:11.104Z,15.10
2022-10-22T04:51:37.656Z,15.02
2022-10-22T04:54:04.292Z,14.97
2022-10-22T04:56:31.826Z,15.11
2022-10-22T04:59:03.890Z,15.16
2022-10-22T05:01:33.910Z,15.24
2022-10-22T05:04:02.863Z,15.30
2022-10-22T05:06:31.316Z,15.40
2022-10-22T05:09:03.353Z,15.25
2022-10-22T05:11:33.828Z,15.40
2022-10-22T05:14:01.849Z,15.64
2022-10-22T05:16:29.653Z,15.68
2022-10-22T05:18:58.704Z,15.55
2022-10-22T05:21:25.278Z,15.52
2022-10-22T05:23:52.138Z,15.53
2022-10-22T05:26:20.122Z,15.50
2022-10-22T05:28:47.843Z,15.50
2022-10-22T05:31:14.823Z,15.50
2022-10-22T05:33:41.763Z,15.48
2022-10-22T05:36:10.635Z,15.55
2022-10-22T05:38:37.166Z,15.55
2022-10-22T05:41:09.321Z,15.58
2022-10-22T05:43:36.027Z,15.47
2022-10-22T05:46:05.338Z,15.41
2022-10-22T05:51:05.723Z,15.56
2022-10-22T05:53:37.949Z,15.58
2022-10-22T05:56:07.886Z,15.65
2022-10-22T05:58:35.174Z,15.67
2022-10-22T06:01:16.352Z,15.56
2022-10-22T06:03:43.917Z,15.69
2022-10-22T06:06:25.883Z,15.68
2022-10-22T06:08:54.409Z,15.70
2022-10-22T06:11:22.822Z,15.82
2022-10-22T06:13:50.573Z,15.83
2022-10-22T06:16:17.234Z,15.78
2022-10-22T06:18:43.590Z,15.73
2022-10-22T06:21:12.575Z,15.64
2022-10-22T06:23:40.536Z,15.62
2022-10-22T06:26:08.457Z,15.52
2022-10-22T06:28:35.702Z,15.52
2022-10-22T06:31:03.831Z,15.47
2022-10-22T06:33:32.860Z,15.45
2022-10-22T06:36:09.706Z,15.42
2022-10-22T06:38:36.161Z,15.38
2022-10-22T06:41:08.089Z,15.34
2022-10-22T06:43:34.621Z,15.29
2022-10-22T06:46:06.016Z,15.29
2022-10-22T06:48:33.322Z,15.36
2022-10-22T06:51:04.663Z,15.34
2022-10-22T06:53:31.170Z,15.11
2022-10-22T06:55:57.768Z,15.09
2022-10-22T06:58:24.156Z,15.00
2022-10-22T07:00:50.492Z,14.97
2022-10-22T07:03:16.817Z,14.93
2022-10-22T07:05:43.150Z,14.93
2022-10-22T07:08:09.543Z,15.03
2022-10-22T07:10:35.890Z,15.17
2022-10-22T07:13:02.251Z,15.45
2022-10-22T07:15:28.663Z,15.28
2022-10-22T07:17:55.078Z,15.57
2022-10-22T07:20:21.596Z,15.83
2022-10-22T07:22:48.488Z,15.77
2022-10-22T07:25:14.947Z,15.85
2022-10-22T07:27:41.536Z,15.68
2022-10-22T07:30:08.691Z,15.87
2022-10-22T07:32:35.088Z,15.87
2022-10-22T07:35:01.412Z,16.03
2022-10-22T07:37:27.739Z,15.98
2022-10-22T07:39:54.129Z,16.06
2022-10-22T07:42:20.546Z,16.05
2022-10-22T07:44:46.943Z,16.10
2022-10-22T07:47:13.311Z,16.13
2022-10-22T07:49:39.670Z,16.05
2022-10-22T07:52:07.725Z,16.00
2022-10-22T07:54:34.123Z,16.12
2022-10-22T07:57:00.612Z,16.21
2022-10-22T07:59:27.277Z,16.26
2022-10-22T08:01:53.669Z,16.34
2022-10-22T08:04:20.204Z,16.46
2022-10-22T08:06:47.481Z,16.38
2022-10-22T08:09:14.514Z,16.40
2022-10-22T08:11:41.014Z,16.37
2022-10-22T08:14:07.393Z,16.67
2022-10-22T08:16:33.721Z,16.66
2022-10-22T08:19:00.102Z,16.57
2022-10-22T08:21:26.751Z,16.53
2022-10-22T08:23:53.211Z,16.65
2022-10-22T08:26:19.667Z,16.68
2022-10-22T08:28:46.044Z,16.78
2022-10-22T08:31:12.748Z,16.95
2022-10-22T08:33:39.633Z,17.16
2022-10-22T08:36:06.704Z,17.18
2022-10-22T08:38:33.367Z,17.27
2022-10-22T08:41:13.104Z,17.37
2022-10-22T08:43:58.060Z,17.38
2022-10-22T08:46:33.256Z,17.04
2022-10-22T08:49:02.830Z,17.38
2022-10-22T08:51:40.311Z,17.42
2022-10-22T08:54:31.385Z,17.61
2022-10-22T08:57:08.873Z,17.73
2022-10-22T08:59:50.535Z,17.93
2022-10-22T09:02:46.650Z,18.19
2022-10-22T09:05:46.245Z,18.17
2022-10-22T09:08:14.971Z,18.22
2022-10-22T09:10:49.425Z,18.48
2022-10-22T09:13:20.081Z,18.34
2022-10-22T09:15:52.469Z,18.04
2022-10-22T09:18:33.268Z,18.37
2022-10-22T09:21:03.871Z,18.23
2022-10-22T09:23:52.019Z,18.45
2022-10-22T09:26:18.393Z,18.72
2022-10-22T09:28:50.132Z,18.84
2022-10-22T09:31:17.128Z,18.99
2022-10-22T09:33:45.778Z,18.86
2022-10-22T09:36:21.360Z,18.61
2022-10-22T09:38:51.409Z,19.04
2022-10-22T09:41:20.226Z,19.02
2022-10-22T09:43:48.027Z,19.02
2022-10-22T09:46:18.079Z,19.02
2022-10-22T09:48:50.232Z,19.08
2022-10-22T09:51:22.650Z,19.21
2022-10-22T09:54:03.268Z,19.08
2022-10-22T09:56:32.331Z,19.19
2022-10-22T09:58:58.795Z,19.29
2022-10-22T10:01:32.712Z,19.24
2022-10-22T10:04:09.853Z,19.34
2022-10-22T10:06:39.109Z,19.37
2022-10-22T10:09:17.437Z,19.64
2022-10-22T10:11:51.876Z,19.81
2022-10-22T10:14:39.370Z,19.86
2022-10-22T10:17:17.939Z,19.67
2022-10-22T10:20:05.336Z,19.76
2022-10-22T10:22:40.817Z,20.09
2022-10-22T10:25:41.443Z,20.03
2022-10-22T10:28:28.469Z,20.01
2022-10-22T10:30:58.132Z,20.20
2022-10-22T10:33:43.489Z,20.23
2022-10-22T10:36:32.957Z,20.24
2022-10-22T10:39:09.866Z,20.19
2022-10-22T10:41:57.241Z,20.16
2022-10-22T10:44:55.959Z,20.32
2022-10-22T10:47:32.902Z,20.50
2022-10-22T10:50:17.177Z,20.30
2022-10-22T10:52:57.418Z,20.45
2022-10-22T10:55:37.178Z,20.32
2022-10-22T10:58:17.696Z,20.27
2022-10-22T11:00:55.453Z,20.28
2022-10-22T11:03:27.952Z,20.42
2022-10-22T11:05:57.964Z,20.31
2022-10-22T11:08:41.773Z,20.34
2022-10-22T11:11:23.843Z,20.33
2022-10-22T11:13:57.338Z,20.33
2022-10-22T11:16:37.124Z,20.44
2022-10-22T11:19:23.021Z,20.11
2022-10-22T11:22:37.375Z,19.95
2022-10-22T11:25:03.696Z,20.17
2022-10-22T11:27:37.450Z,20.28
2022-10-22T11:30:16.588Z,20.23
2022-10-22T11:32:47.293Z,20.36
2022-10-22T11:35:25.689Z,20.53
2022-10-22T11:37:55.819Z,20.63
2022-10-22T11:40:37.586Z,20.83
2022-10-22T11:43:09.730Z,20.92
2022-10-22T11:45:39.139Z,20.77
2022-10-22T11:48:11.689Z,20.72
2022-10-22T11:50:40.998Z,20.97
2022-10-22T11:53:13.498Z,21.02
2022-10-22T11:55:45.367Z,20.85
2022-10-22T11:58:39.469Z,21.11
2022-10-22T12:01:08.920Z,21.06
2022-10-22T12:03:35.259Z,20.94
2022-10-22T12:06:15.643Z,21.32
2022-10-22T12:08:43.874Z,21.34
2022-10-22T12:11:10.218Z,21.38
2022-10-22T12:13:58.444Z,21.39
2022-10-22T12:16:55.591Z,21.32
2022-10-22T12:19:22.812Z,21.34
2022-10-22T12:21:54.343Z,21.55
2022-10-22T12:24:23.116Z,21.25
2022-10-22T12:26:52.338Z,21.01
2022-10-22T12:29:23.633Z,20.99
2022-10-22T12:31:50.155Z,20.93
2022-10-22T12:34:23.801Z,21.11
2022-10-22T12:36:51.939Z,21.27
2022-10-22T12:39:25.447Z,21.25
2022-10-22T12:41:53.378Z,21.29
2022-10-22T12:44:19.924Z,21.49
2022-10-22T12:46:51.779Z,21.55
2022-10-22T12:49:25.114Z,21.58
2022-10-22T12:51:51.512Z,21.42
2022-10-22T12:54:32.026Z,21.61
2022-10-22T12:56:58.899Z,21.57
2022-10-22T12:59:34.855Z,21.75
2022-10-22T13:02:01.700Z,21.84
2022-10-22T13:04:34.945Z,21.55
2022-10-22T13:07:05.786Z,21.63
2022-10-22T13:09:39.206Z,21.69
2022-10-22T13:12:08.502Z,21.56
2022-10-22T13:14:38.124Z,21.78
2022-10-22T13:17:16.182Z,21.83
2022-10-22T13:19:54.691Z,21.82
2022-10-22T13:22:26.923Z,21.60
2022-10-22T13:24:53.590Z,21.79
2022-10-22T13:27:20.273Z,21.79
2022-10-22T13:29:46.746Z,21.80
2022-10-22T13:32:28.909Z,21.59
2022-10-22T13:34:57.699Z,21.46
2022-10-22T13:37:24.928Z,21.79
2022-10-22T13:39:51.348Z,21.61
2022-10-22T13:42:17.717Z,21.62
2022-10-22T13:44:44.100Z,21.79
2022-10-22T13:47:30.061Z,21.93
2022-10-22T13:50:00.222Z,22.14
2022-10-22T13:52:48.144Z,22.12
2022-10-22T13:55:19.038Z,22.16
2022-10-22T13:57:46.199Z,21.92
2022-10-22T14:00:18.854Z,22.06
2022-10-22T14:02:47.795Z,21.72
2022-10-22T14:05:16.384Z,21.88
2022-10-22T14:07:43.096Z,21.63
2022-10-22T14:10:17.160Z,21.59
2022-10-22T14:12:43.957Z,21.57
2022-10-22T14:15:12.821Z,21.69
2022-10-22T14:17:40.688Z,21.58
2022-10-22T14:20:09.942Z,21.77
2022-10-22T14:22:36.268Z,21.86
2022-10-22T14:25:02.618Z,21.96
2022-10-22T14:27:28.941Z,21.87
2022-10-22T14:29:59.396Z,21.78
2022-10-22T14:32:28.223Z,21.46
2022-10-22T14:34:54.560Z,21.62
2022-10-22T14:37:21.091Z,21.52
2022-10-22T14:39:51.837Z,21.46
2022-10-22T14:42:19.860Z,21.41
2022-10-22T14:44:46.832Z,21.47
2022-10-22T14:47:14.667Z,21.35
2022-10-22T14:49:41.112Z,21.29
2022-10-22T14:52:10.547Z,21.37
2022-10-22T14:54:39.335Z,21.35
2022-10-22T14:57:05.801Z,21.22
2022-10-22T14:59:32.273Z,21.28
2022-10-22T15:01:58.695Z,21.43
2022-10-22T15:04:27.102Z,21.14
2022-10-22T15:06:56.297Z,21.14
2022-10-22T15:09:24.116Z,21.00
2022-10-22T15:11:51.051Z,21.21
2022-10-22T15:14:17.453Z,21.21
2022-10-22T15:16:43.861Z,20.88
2022-10-22T15:19:11.165Z,20.91
2022-10-22T15:21:37.643Z,20.83
2022-10-22T15:24:04.750Z,20.95
2022-10-22T15:26:31.152Z,20.73
2022-10-22T15:28:57.624Z,20.73
2022-10-22T15:31:47.579Z,20.59
2022-10-22T15:34:18.998Z,20.59
2022-10-22T15:36:45.400Z,20.43
2022-10-22T15:39:11.813Z,20.30
2022-10-22T15:41:38.328Z,20.24
2022-10-22T15:44:05.955Z,20.16
2022-10-22T15:46:35.315Z,20.05
2022-10-22T15:49:01.996Z,19.94
2022-10-22T15:51:28.481Z,19.88
2022-10-22T15:53:57.891Z,19.79
2022-10-22T15:56:25.549Z,19.68
2022-10-22T15:59:00.232Z,19.59
2022-10-22T16:01:27.422Z,19.52
2022-10-22T16:03:59.934Z,19.35
2022-10-22T16:06:27.479Z,19.23
2022-10-22T16:08:54.872Z,19.24
2022-10-22T16:11:21.366Z,19.16
2022-10-22T16:13:47.763Z,19.08
2022-10-22T16:16:14.255Z,18.83
2022-10-22T16:18:40.580Z,18.52
2022-10-22T16:21:12.143Z,18.34
2022-10-22T16:23:38.480Z,18.23
2022-10-22T16:26:04.909Z,18.12
2022-10-22T16:28:31.339Z,17.96
2022-10-22T16:31:06.181Z,17.74
2022-10-22T16:33:41.287Z,17.45
2022-10-22T16:36:16.585Z,17.05
2022-10-22T16:38:43.166Z,17.07
2022-10-22T16:41:14.090Z,16.81
2022-10-22T16:43:41.687Z,16.79
2022-10-22T16:46:09.196Z,16.83
2022-10-22T16:48:37.738Z,16.63
2022-10-22T16:51:09.143Z,16.61
2022-10-22T16:53:35.646Z,16.52
2022-10-22T16:56:02.466Z,16.42
2022-10-22T16:58:28.881Z,16.32
2022-10-22T17:00:55.554Z,16.25
2022-10-22T17:03:24.557Z,16.17
2022-10-22T17:05:53.862Z,16.08
2022-10-22T17:08:20.262Z,15.91
2022-10-22T17:10:46.723Z,15.85
2022-10-22T17:13:13.137Z,15.86
2022-10-22T17:15:40.404Z,15.52
2022-10-22T17:18:06.716Z,15.70
2022-10-22T17:20:33.103Z,15.71
2022-10-22T17:22:59.527Z,15.66
2022-10-22T17:25:35.089Z,15.67
2022-10-22T17:28:01.462Z,15.59
2022-10-22T17:30:28.736Z,15.52
2022-10-22T17:32:55.149Z,15.45
2022-10-22T17:35:21.564Z,15.45
2022-10-22T17:37:48.217Z,15.38
2022-10-22T17:40:15.591Z,15.46
2022-10-22T17:42:42.205Z,15.28
2022-10-22T17:45:09.058Z,15.39
2022-10-22T17:47:36.437Z,15.35
2022-10-22T17:50:03.480Z,15.29
2022-10-22T17:52:29.856Z,15.25
2022-10-22T17:54:56.370Z,15.29
2022-10-22T17:57:22.698Z,15.37
2022-10-22T17:59:49.114Z,15.34
2022-10-22T18:02:17.677Z,15.21
2022-10-22T18:04:44.295Z,15.06
2022-10-22T18:07:10.810Z,15.01
2022-10-22T18:09:37.244Z,14.94
2022-10-22T18:12:03.698Z,14.80
2022-10-22T18:14:30.156Z,14.82
2022-10-22T18:16:56.504Z,14.70
2022-10-22T18:19:24.425Z,14.73
2022-10-22T18:21:50.833Z,14.63
2022-10-22T18:24:17.838Z,14.59
2022-10-22T18:26:44.600Z,14.48
2022-10-22T18:29:15.845Z,14.38
2022-10-22T18:31:42.511Z,14.31
2022-10-22T18:34:08.923Z,14.40
2022-10-22T18:36:35.267Z,14.33
2022-10-22T18:39:02.219Z,14.26
2022-10-22T18:41:30.170Z,14.31
2022-10-22T18:43:58.936Z,14.17
2022-10-22T18:46:26.380Z,14.36
2022-10-22T18:48:57.193Z,14.40
2022-10-22T18:51:25.249Z,14.31
2022-10-22T18:54:05.301Z,14.19
2022-10-22T18:56:40.899Z,14.09
2022-10-22T18:59:07.270Z,14.11
2022-10-22T19:01:35.395Z,13.97
2022-10-22T19:04:01.962Z,14.04
2022-10-22T19:06:34.539Z,13.96
2022-10-22T19:09:03.697Z,13.91
2022-10-22T19:11:30.163Z,13.86
2022-10-22T19:13:56.812Z,14.28
2022-10-22T19:16:23.476Z,13.89
2022-10-22T19:19:01.819Z,13.89
2022-10-22T19:21:28.170Z,13.81
2022-10-22T19:23:56.354Z,13.73
2022-10-22T19:26:25.340Z,13.77
2022-10-22T19:28:53.333Z,13.97
2022-10-22T19:31:22.193Z,13.72
2022-10-22T19:33:48.869Z,13.70
2022-10-22T19:36:17.359Z,13.71
2022-10-22T19:38:46.227Z,13.63
2022-10-22T19:41:14.865Z,13.47
2022-10-22T19:43:42.848Z,13.62
2022-10-22T19:46:10.218Z,13.68
2022-10-22T19:48:37.594Z,13.63
2022-10-22T19:51:08.419Z,13.64
2022-10-22T19:53:36.607Z,13.49
2022-10-22T19:56:06.302Z,13.57
2022-10-22T19:58:32.941Z,13.50
2022-10-22T20:01:07.527Z,13.36
2022-10-22T20:03:36.223Z,13.42
2022-10-22T20:06:04.377Z,13.48
2022-10-22T20:08:32.011Z,13.44
2022-10-22T20:10:58.503Z,13.42
2022-10-22T20:13:24.914Z,13.32
2022-10-22T20:15:53.412Z,13.31
2022-10-22T20:18:22.241Z,13.17
2022-10-22T20:20:49.333Z,13.00
2022-10-22T20:23:15.718Z,13.12
2022-10-22T20:25:44.093Z,13.23
2022-10-22T20:28:11.520Z,13.29
2022-10-22T20:30:45.489Z,13.18
2022-10-22T20:33:12.399Z,13.27
2022-10-22T20:35:39.245Z,13.34
2022-10-22T20:38:07.372Z,13.42
2022-10-22T20:40:34.294Z,13.39
2022-10-22T20:43:01.740Z,13.37
2022-10-22T20:45:28.643Z,13.66
2022-10-22T20:48:02.006Z,13.33
2022-10-22T20:50:32.078Z,13.08
2022-10-22T20:52:59.209Z,13.15
2022-10-22T20:55:26.302Z,13.08
2022-10-22T20:57:52.848Z,13.00
2022-10-22T21:00:19.268Z,12.97
2022-10-22T21:02:45.809Z,12.98
2022-10-22T21:05:12.179Z,12.88
2022-10-22T21:07:38.826Z,12.94
2022-10-22T21:10:05.824Z,12.90
2022-10-22T21:12:32.288Z,12.91
2022-10-22T21:14:58.660Z,12.88
2022-10-22T21:17:25.006Z,12.92
2022-10-22T21:19:51.343Z,12.85
2022-10-22T21:22:17.738Z,12.80
2022-10-22T21:24:44.061Z,12.80
2022-10-22T21:27:10.513Z,12.84
2022-10-22T21:29:36.879Z,12.77
2022-10-22T21:32:03.230Z,12.77
2022-10-22T21:34:29.730Z,12.93
2022-10-22T21:36:56.056Z,12.89
2022-10-22T21:39:22.395Z,12.70
2022-10-22T21:41:48.758Z,12.63
2022-10-22T21:44:15.110Z,12.56
2022-10-22T21:46:41.558Z,12.50
2022-10-22T21:49:07.905Z,12.52
2022-10-22T21:51:37.905Z,12.78
2022-10-22T21:54:04.686Z,12.56
2022-10-22T21:56:33.716Z,12.52
2022-10-22T21:59:01.335Z,12.50
2022-10-22T22:01:28.159Z,12.38
2022-10-22T22:03:54.927Z,12.35
2022-10-22T22:06:24.143Z,12.32
2022-10-22T22:08:52.649Z,12.27
2022-10-22T22:11:25.059Z,12.14
2022-10-22T22:13:53.309Z,12.16
2022-10-22T22:16:27.131Z,12.12
2022-10-22T22:18:56.658Z,12.31
2022-10-22T22:21:23.061Z,12.32
2022-10-22T22:23:50.627Z,12.15
2022-10-22T22:26:22.083Z,12.29
2022-10-22T22:28:51.681Z,12.18
2022-10-22T22:31:22.142Z,12.24
2022-10-22T22:33:48.586Z,12.24
2022-10-22T22:36:15.124Z,12.12
2022-10-22T22:38:41.810Z,12.17
2022-10-22T22:41:08.950Z,12.25
2022-10-22T22:43:36.111Z,12.13
2022-10-22T22:46:04.827Z,12.01
2022-10-22T22:48:32.151Z,11.99
2022-10-22T22:51:00.050Z,12.05
2022-10-22T22:53:28.007Z,12.03
2022-10-22T22:56:14.439Z,11.76
2022-10-22T22:58:42.097Z,11.72
2022-10-22T23:01:15.755Z,11.68
2022-10-22T23:03:43.327Z,11.65
2022-10-22T23:06:10.155Z,11.68
2022-10-22T23:08:36.776Z,11.74
2022-10-22T23:11:11.861Z,11.64
2022-10-22T23:13:39.076Z,11.70
2022-10-22T23:16:08.471Z,11.77
2022-10-22T23:18:35.692Z,11.81
2022-10-22T23:21:13.090Z,11.70
2022-10-22T23:23:45.403Z,11.72
2022-10-22T23:26:13.819Z,11.74
2022-10-22T23:28:40.786Z,11.74
2022-10-22T23:31:07.741Z,11.73
2022-10-22T23:33:34.928Z,11.78
2022-10-22T23:36:02.024Z,11.66
2022-10-22T23:38:28.724Z,11.53
2022-10-22T23:40:59.181Z,11.52
2022-10-22T23:43:27.127Z,11.45
2022-10-22T23:45:53.827Z,11.25
2022-10-22T23:48:20.574Z,11.36
2022-10-22T23:50:47.767Z,11.47
2022-10-22T23:53:14.410Z,11.51
2022-10-22T23:55:42.163Z,11.44
2022-10-22T23:58:09.103Z,11.39
